Map

Track Data

SID SEASON NUMBER BASIN SUBBASIN NAME ISO_TIME NATURE LAT LON WMO_WIND WMO_PRES WMO_AGENCY TRACK_TYPE DIST2LAND LANDFALL IFLAG USA_AGENCY USA_ATCF_ID USA_LAT USA_LON USA_RECORD USA_STATUS USA_WIND USA_PRES USA_SSHS USA_R34_NE USA_R34_SE USA_R34_SW USA_R34_NW USA_R50_NE USA_R50_SE USA_R50_SW USA_R50_NW USA_R64_NE USA_R64_SE USA_R64_SW USA_R64_NW USA_POCI USA_ROCI USA_RMW USA_EYE TOKYO_LAT TOKYO_LON TOKYO_GRADE TOKYO_WIND TOKYO_PRES TOKYO_R50_DIR TOKYO_R50_LONG TOKYO_R50_SHORT TOKYO_R30_DIR TOKYO_R30_LONG TOKYO_R30_SHORT TOKYO_LAND CMA_LAT CMA_LON CMA_CAT CMA_WIND CMA_PRES HKO_LAT HKO_LON HKO_CAT HKO_WIND HKO_PRES NEWDELHI_LAT NEWDELHI_LON NEWDELHI_GRADE NEWDELHI_WIND NEWDELHI_PRES NEWDELHI_CI NEWDELHI_DP NEWDELHI_POCI REUNION_LAT REUNION_LON REUNION_TYPE REUNION_WIND REUNION_PRES REUNION_TNUM REUNION_CI REUNION_RMW REUNION_R34_NE REUNION_R34_SE REUNION_R34_SW REUNION_R34_NW REUNION_R50_NE REUNION_R50_SE REUNION_R50_SW REUNION_R50_NW REUNION_R64_NE REUNION_R64_SE REUNION_R64_SW REUNION_R64_NW BOM_LAT BOM_LON BOM_TYPE BOM_WIND BOM_PRES BOM_TNUM BOM_CI BOM_RMW BOM_R34_NE BOM_R34_SE BOM_R34_SW BOM_R34_NW BOM_R50_NE BOM_R50_SE BOM_R50_SW BOM_R50_NW BOM_R64_NE BOM_R64_SE BOM_R64_SW BOM_R64_NW BOM_ROCI BOM_POCI BOM_EYE BOM_POS_METHOD BOM_PRES_METHOD NADI_LAT NADI_LON NADI_CAT NADI_WIND NADI_PRES WELLINGTON_LAT WELLINGTON_LON WELLINGTON_WIND WELLINGTON_PRES DS824_LAT DS824_LON DS824_STAGE DS824_WIND DS824_PRES TD9636_LAT TD9636_LON TD9636_STAGE TD9636_WIND TD9636_PRES TD9635_LAT TD9635_LON TD9635_WIND TD9635_PRES TD9635_ROCI NEUMANN_LAT NEUMANN_LON NEUMANN_CLASS NEUMANN_WIND NEUMANN_PRES MLC_LAT MLC_LON MLC_CLASS MLC_WIND MLC_PRES USA_GUST BOM_GUST BOM_GUST_PER REUNION_GUST REUNION_GUST_PER USA_SEAHGT USA_SEARAD_NE USA_SEARAD_SE USA_SEARAD_SW USA_SEARAD_NW STORM_SPEED STORM_DIR
1870101S09447 1870 11 SI MM NOT_NAMED 1870-04-10 18:00:00 NR -8.70000 86.5000 main 1581 1581 __________O___ -1 -8.70000 86.5000 7 6 245
1870101S09447 1870 11 SI MM NOT_NAMED 1870-04-10 21:00:00 NR -8.83147 86.2096 main 1616 1616 __________P___ -1 -8.83147 86.2096 7 6 245
1870101S09447 1870 11 SI MM NOT_NAMED 1870-04-11 00:00:00 NR -8.96025 85.9252 main 1655 1655 __________P___ -1 -8.96025 85.9252 7 6 245
1870101S09447 1870 11 SI MM NOT_NAMED 1870-04-11 03:00:00 NR -9.08391 85.6533 main 1680 1680 __________P___ -1 -9.08391 85.6533 7 6 245
1870101S09447 1870 11 SI MM NOT_NAMED 1870-04-11 06:00:00 NR -9.20000 85.4000 main 1714 1714 __________O___ -1 -9.20000 85.4000 7 5 245
1870101S09447 1870 11 SI MM NOT_NAMED 1870-04-11 09:00:00 NR -9.30706 85.1687 main 1739 1739 __________P___ -1 -9.30706 85.1687 7 5 245
1870101S09447 1870 11 SI MM NOT_NAMED 1870-04-11 12:00:00 NR -9.40732 84.9499 main 1773 1773 __________P___ -1 -9.40732 84.9499 7 5 246
1870101S09447 1870 11 SI MM NOT_NAMED 1870-04-11 15:00:00 NR -9.50393 84.7312 main 1784 1781 __________P___ -1 -9.50393 84.7312 7 5 247
1870101S09447 1870 11 SI MM NOT_NAMED 1870-04-11 18:00:00 NR -9.60000 84.5000 main 1789 1787 __________O___ -1 -9.60000 84.5000 7 5 249
1870101S09447 1870 11 SI MM NOT_NAMED 1870-04-11 21:00:00 NR -9.68778 84.2433 main 1793 1790 __________P___ -1 -9.68778 84.2433 7 6 251
1870101S09447 1870 11 SI MM NOT_NAMED 1870-04-12 00:00:00 NR -9.77744 83.9723 main 1799 1794 __________P___ -1 -9.77744 83.9723 7 6 251
1870101S09447 1870 11 SI MM NOT_NAMED 1870-04-12 03:00:00 NR -9.87838 83.6902 main 1803 1799 __________P___ -1 -9.87838 83.6902 7 6 248
1870101S09447 1870 11 SI MM NOT_NAMED 1870-04-12 06:00:00 NR -10.0000 83.4000 main 1808 1806 __________O___ -1 -10.0000 83.4000 7 6 244
1870101S09447 1870 11 SI MM NOT_NAMED 1870-04-12 09:00:00 NR -10.1574 83.1153 main 1825 1823 __________P___ -1 -10.1574 83.1153 7 7 239
1870101S09447 1870 11 SI MM NOT_NAMED 1870-04-12 12:00:00 NR -10.3348 82.8225 main 1831 1831 __________P___ -1 -10.3348 82.8225 7 7 238
1870101S09447 1870 11 SI MM NOT_NAMED 1870-04-12 15:00:00 NR -10.5199 82.5184 main 1849 1849 __________P___ -1 -10.5199 82.5184 7 7 239
1870101S09447 1870 11 SI MM NOT_NAMED 1870-04-12 18:00:00 NR -10.7000 82.2000 main 1868 1867 __________O___ -1 -10.7000 82.2000 7 7 243
1870101S09447 1870 11 SI MM NOT_NAMED 1870-04-12 21:00:00 NR -10.8531 81.8561 main 1887 1885 __________P___ -1 -10.8531 81.8561 7 8 246
1870101S09447 1870 11 SI MM NOT_NAMED 1870-04-13 00:00:00 NR -11.0000 81.4999 main 1896 1895 __________P___ -1 -11.0000 81.4999 7 8 247
1870101S09447 1870 11 SI MM NOT_NAMED 1870-04-13 03:00:00 NR -11.1469 81.1436 main 1905 1905 __________P___ -1 -11.1469 81.1436 7 8 246
1870101S09447 1870 11 SI MM NOT_NAMED 1870-04-13 06:00:00 NR -11.3000 80.8000 main 1927 1927 __________O___ -1 -11.3000 80.8000 7 7 243
1870101S09447 1870 11 SI MM NOT_NAMED 1870-04-13 09:00:00 NR -11.4635 80.4976 main 1949 1949 __________P___ -1 -11.4635 80.4976 7 7 240
1870101S09447 1870 11 SI MM NOT_NAMED 1870-04-13 12:00:00 NR -11.6346 80.2072 main 1961 1961 __________P___ -1 -11.6346 80.2072 7 7 239
1870101S09447 1870 11 SI MM NOT_NAMED 1870-04-13 15:00:00 NR -11.8135 79.9132 main 1984 1984 __________P___ -1 -11.8135 79.9132 7 7 238
1870101S09447 1870 11 SI MM NOT_NAMED 1870-04-13 18:00:00 NR -12.0000 79.6000 main 2008 2008 __________O___ -1 -12.0000 79.6000 7 8 240
1870101S09447 1870 11 SI MM NOT_NAMED 1870-04-13 21:00:00 NR -12.1929 79.2384 main 2033 2033 __________P___ -1 -12.1929 79.2384 7 8 242
1870101S09447 1870 11 SI MM NOT_NAMED 1870-04-14 00:00:00 NR -12.3926 78.8575 main 2058 2058 __________P___ -1 -12.3926 78.8575 7 9 242
1870101S09447 1870 11 SI MM NOT_NAMED 1870-04-14 03:00:00 NR -12.5960 78.4728 main 2085 2085 __________P___ -1 -12.5960 78.4728 7 8 241
1870101S09447 1870 11 SI MM NOT_NAMED 1870-04-14 06:00:00 NR -12.8000 78.1000 main 2113 2113 __________O___ -1 -12.8000 78.1000 7 8 241
1870101S09447 1870 11 SI MM NOT_NAMED 1870-04-14 09:00:00 NR -12.9918 77.7482 main 2141 2141 __________P___ -1 -12.9918 77.7482 7 8 240
1870101S09447 1870 11 SI MM NOT_NAMED 1870-04-14 12:00:00 NR -13.1849 77.4122 main 2168 2168 __________P___ -1 -13.1849 77.4122 7 8 238
1870101S09447 1870 11 SI MM NOT_NAMED 1870-04-14 15:00:00 NR -13.3855 77.0951 main 2192 2153 __________P___ -1 -13.3855 77.0951 7 7 235
1870101S09447 1870 11 SI MM NOT_NAMED 1870-04-14 18:00:00 NR -13.6000 76.8000 main 2153 2115 __________O___ -1 -13.6000 76.8000 7 7 231
1870101S09447 1870 11 SI MM NOT_NAMED 1870-04-14 21:00:00 NR -13.8396 76.5122 main 2115 2082 __________P___ -1 -13.8396 76.5122 7 7 227
1870101S09447 1870 11 SI MM NOT_NAMED 1870-04-15 00:00:00 NR -14.0924 76.2475 main 2072 2044 __________P___ -1 -14.0924 76.2475 7 7 224
1870101S09447 1870 11 SI MM NOT_NAMED 1870-04-15 03:00:00 NR -14.3490 76.0091 main 2044 2011 __________P___ -1 -14.3490 76.0091 7 7 221
1870101S09447 1870 11 SI MM NOT_NAMED 1870-04-15 06:00:00 NR -14.6000 75.8000 main 2011 1983 __________O___ -1 -14.6000 75.8000 7 6 218
1870101S09447 1870 11 SI MM NOT_NAMED 1870-04-15 09:00:00 NR -14.8361 75.6129 main 1983 1962 __________P___ -1 -14.8361 75.6129 7 6 216
1870101S09447 1870 11 SI MM NOT_NAMED 1870-04-15 12:00:00 NR -15.0649 75.4548 main 1962 1934 __________P___ -1 -15.0649 75.4548 7 5 212
1870101S09447 1870 11 SI MM NOT_NAMED 1870-04-15 15:00:00 NR -15.2862 75.3192 main 1934 1916 __________P___ -1 -15.2862 75.3192 7 5 210
1870101S09447 1870 11 SI MM NOT_NAMED 1870-04-15 18:00:00 NR -15.5000 75.2000 main 1916 1899 __________O___ -1 -15.5000 75.2000 7 5 210
1870101S09447 1870 11 SI MM NOT_NAMED 1870-04-15 21:00:00 NR -15.6868 75.0774 main 1899 1882 __________P___ -1 -15.6868 75.0774 7 4 211
1870101S09447 1870 11 SI MM NOT_NAMED 1870-04-16 00:00:00 NR -15.8700 74.9698 main 1882 1865 __________P___ -1 -15.8700 74.9698 7 4 207
1870101S09447 1870 11 SI MM NOT_NAMED 1870-04-16 03:00:00 NR -16.0681 74.8774 main 1865 1848 __________P___ -1 -16.0681 74.8774 7 5 201
1870101S09447 1870 11 SI MM NOT_NAMED 1870-04-16 06:00:00 NR -16.3000 74.8000 main 1848 1829 __________O___ -1 -16.3000 74.8000 7 5 196
1870101S09447 1870 11 SI MM NOT_NAMED 1870-04-16 09:00:00 NR -16.5891 74.7195 main 1829 1820 __________P___ -1 -16.5891 74.7195 7 6 193
1870101S09447 1870 11 SI MM NOT_NAMED 1870-04-16 12:00:00 NR -16.9125 74.6552 main 1820 1801 __________P___ -1 -16.9125 74.6552 7 7 189
1870101S09447 1870 11 SI MM NOT_NAMED 1870-04-16 15:00:00 NR -17.2547 74.6133 main 1799 1791 __________P___ -1 -17.2547 74.6133 7 7 185
1870101S09447 1870 11 SI MM NOT_NAMED 1870-04-16 18:00:00 NR -17.6000 74.6000 main 1791 1784 __________O___ -1 -17.6000 74.6000 7 7 178
1870101S09447 1870 11 SI MM NOT_NAMED 1870-04-16 21:00:00 NR -17.9372 74.6170 main 1784 1778 __________P___ -1 -17.9372 74.6170 7 7 175
1870101S09447 1870 11 SI MM NOT_NAMED 1870-04-17 00:00:00 NR -18.2725 74.6623 main 1786 1781 __________P___ -1 -18.2725 74.6623 7 7 171
1870101S09447 1870 11 SI MM NOT_NAMED 1870-04-17 03:00:00 NR -18.5966 74.7264 main 1781 1779 __________P___ -1 -18.5966 74.7264 7 6 168
1870101S09447 1870 11 SI MM NOT_NAMED 1870-04-17 06:00:00 NR -18.9000 74.8000 main 1786 1783 __________O___ -1 -18.9000 74.8000 7 6 168
1870101S09447 1870 11 SI MM NOT_NAMED 1870-04-17 09:00:00 NR -19.1756 74.8598 main 1792 1790 __________P___ -1 -19.1756 74.8598 7 5 168
1870101S09447 1870 11 SI MM NOT_NAMED 1870-04-17 12:00:00 NR -19.4299 74.9277 main 1790 1789 __________P___ -1 -19.4299 74.9277 7 5 164
1870101S09447 1870 11 SI MM NOT_NAMED 1870-04-17 15:00:00 NR -19.6693 75.0067 main 1797 1796 __________P___ -1 -19.6693 75.0067 7 5 161
1870101S09447 1870 11 SI MM NOT_NAMED 1870-04-17 18:00:00 NR -19.9000 75.1000 main 1806 1805 __________O___ -1 -19.9000 75.1000 7 5 157
1870101S09447 1870 11 SI MM NOT_NAMED 1870-04-17 21:00:00 NR -20.1241 75.2067 main 1814 1814 __________P___ -1 -20.1241 75.2067 7 5 154
1870101S09447 1870 11 SI MM NOT_NAMED 1870-04-18 00:00:00 NR -20.3425 75.3277 main 1823 1823 __________P___ -1 -20.3425 75.3277 7 5 152
1870101S09447 1870 11 SI MM NOT_NAMED 1870-04-18 03:00:00 NR -20.5647 75.4599 main 1843 1842 __________P___ -1 -20.5647 75.4599 7 5 151
1870101S09447 1870 11 SI MM NOT_NAMED 1870-04-18 06:00:00 NR -20.8000 75.6000 main 1852 1852 __________O___ -1 -20.8000 75.6000 7 6 153
1870101S09447 1870 11 SI MM NOT_NAMED 1870-04-18 09:00:00 NR -21.0769 75.7427 main 1862 1862 __________P___ -1 -21.0769 75.7427 7 6 154
1870101S09447 1870 11 SI MM NOT_NAMED 1870-04-18 12:00:00 NR -21.3650 75.8924 main 1883 1883 __________P___ -1 -21.3650 75.8924 7 6 154
1870101S09447 1870 11 SI MM NOT_NAMED 1870-04-18 15:00:00 NR -21.6456 76.0459 main 1894 1894 __________P___ -1 -21.6456 76.0459 7 6 152
1870101S09447 1870 11 SI MM NOT_NAMED 1870-04-18 18:00:00 NR -21.9000 76.2000 main 1915 1915 __________O___ -1 -21.9000 76.2000 7 5 150
1870101S09447 1870 11 SI MM NOT_NAMED 1870-04-18 21:00:00 NR -22.0504 76.2989 main 1926 1926 __________P___ -1 -22.0504 76.2989 7 3 146
1870101S09447 1870 11 SI MM NOT_NAMED 1870-04-19 00:00:00 NR -22.1815 76.4053 main 1937 1937 __________P___ -1 -22.1815 76.4053 7 4 141
1870101S09447 1870 11 SI MM NOT_NAMED 1870-04-19 03:00:00 NR -22.3470 76.5589 main 1958 1958 __________P___ -1 -22.3470 76.5589 7 6 139
1870101S09447 1870 11 SI MM NOT_NAMED 1870-04-19 06:00:00 NR -22.6000 76.8000 main 1981 1981 __________O___ -1 -22.6000 76.8000 7 9 140
1870101S09447 1870 11 SI MM NOT_NAMED 1870-04-19 09:00:00 NR -23.0149 77.1643 main 2025 2025 __________P___ -1 -23.0149 77.1643 7 12 141
1870101S09447 1870 11 SI MM NOT_NAMED 1870-04-19 12:00:00 NR -23.5178 77.6213 main 2071 2071 __________P___ -1 -23.5178 77.6213 7 14 139
1870101S09447 1870 11 SI MM NOT_NAMED 1870-04-19 15:00:00 NR -24.0616 78.1429 main 2129 2129 __________P___ -1 -24.0616 78.1429 7 15 138
1870101S09447 1870 11 SI MM NOT_NAMED 1870-04-19 18:00:00 NR -24.6000 78.7000 main 2197 2197 __________O___ -1 -24.6000 78.7000 7 15 135
1870101S09447 1870 11 SI MM NOT_NAMED 1870-04-19 21:00:00 NR -25.0965 79.2678 main 2266 2266 __________P___ -1 -25.0965 79.2678 7 14 133
1870101S09447 1870 11 SI MM NOT_NAMED 1870-04-20 00:00:00 NR -25.5538 79.8406 main 2325 2325 __________P___ -1 -25.5538 79.8406 7 14 131
1870101S09447 1870 11 SI MM NOT_NAMED 1870-04-20 03:00:00 NR -25.9842 80.4182 main 2392 2392 __________P___ -1 -25.9842 80.4182 7 13 129
1870101S09447 1870 11 SI MM NOT_NAMED 1870-04-20 06:00:00 NR -26.4000 81.0000 main 2459 __________O___ -1 -26.4000 81.0000 7 13 129

About IBTrACS Database

This database is a web-friendly format of International Best Track Archive for Climate Stewardship (IBTrACS), a global best track data archive curated by NOAA dating back to 1842.

Updated: 2021-12-06